Impacts METAR Board INFO
IDs:

KCVG - Cincinnati Intl, KY, US

Updated at: 0505 UTC 16 Dec 2017
Potential Impact None Slight Moderate High
Time15/17Z 15/18Z 15/19Z 15/20Z 15/21Z 15/22Z 15/23Z 16/00Z 16/01Z 16/02Z 16/03Z 16/04Z 16/05Z
VIS10 10 10 10 10 10 10 10 10 10 10 10 10
CIG-- 45 45 31 29 31 31 45 30 30 55 60 55
CoverSCTOVCOVCOVCOVCOVCOVCBKNOVCOVCOVCOVCOVC
FltCatVFRVFRVFRVFRMVFRVFRVFRVFRMVFRMVFRVFRVFRVFR
WX--------------------------
WDir220250250230250250270250230220210220200
WSpd10 12 12 13 9 9 11 5 5 6 7 6 5
WGst19 -- 19 -- -- -- -- -- -- -- -- -- --
Raw hourly METARs
KCVG 151652Z 22010G19KT 10SM FEW045 SCT130 00/M06 A3001 RMK AO2 SLP168 T00001061
KCVG 151752Z 25012KT 10SM FEW028 BKN045 OVC050 M01/M07 A3000 RMK AO2 SLP166 T10061067 10000 21072 58009
KCVG 151852Z 25012G19KT 10SM SCT033 OVC045 M01/M06 A2999 RMK AO2 SLP164 T10061061
KCVG 151952Z 23013KT 10SM BKN031 OVC045 00/M06 A2998 RMK AO2 SLP161 T00001061
KCVG 152052Z 25009KT 10SM BKN029 OVC045 00/M06 A3000 RMK AO2 SLP165 T00001056 55001
KCVG 152152Z 25009KT 10SM BKN031 OVC045 00/M06 A3002 RMK AO2 SLP173 T00001056
KCVG 152252Z 27011KT 10SM BKN031 OVC045 00/M06 A3005 RMK AO2 SLP182 T00001056
KCVG 152352Z 25005KT 10SM SCT032 BKN045 M01/M06 A3006 RMK AO2 SLP189 T10061056 10006 21006 51022
KCVG 160052Z 23005KT 10SM BKN030 OVC043 M01/M06 A3008 RMK AO2 SLP193 T10061056
KCVG 160152Z 22006KT 10SM SCT028 OVC030 M01/M05 A3008 RMK AO2 SLP194 T10061050
KCVG 160252Z 21007KT 10SM FEW030 OVC055 00/M05 A3008 RMK AO2 SLP192 T00001050 50001
KCVG 160352Z 22006KT 10SM OVC060 00/M05 A3008 RMK AO2 SLP194 T00001050
KCVG 160452Z 20005KT 10SM OVC055 00/M04 A3010 RMK AO2 SLP198 T00001044 400061072